Terminal Aerodrome Forecast
Issued by NWS

Home | Current Version | Previous Version | Graphics & Text | Print | Product List | Glossary On
Versions: 1 2 3 4 5 6 7 8 9 10 11 12 13 14 15 16 17 18 19
361
FTUS43 KBIS 181925 AAA
TAFDIK
TAF AMD
KDIK 181925Z 1819/1918 01015KT P6SM VCSH BKN035
     FM182300 01011KT P6SM OVC035
     FM191600 03006KT P6SM VCSH OVC035=

USA.gov is the U.S. government's official web portal to all federal, state and local government web resources and services.